Terminal Aerodrome Forecast
Issued by NWS Albuquerque, NM

Home | Current Version | Previous Version | Text Only | Print | Product List | Glossary On
Versions: 1 2 3 4 5 6 7 8 9 10 11 12 13 14 15 16
000
FTUS45 KABQ 231100
TAFABQ
TAF
KABQ 231139Z 2312/2412 02008KT P6SM FEW070 SCT100
     FM231800 13010KT P6SM SCT100 SCT150
     FM232200 14013KT P6SM VCTS SCT090CB BKN110
     FM240200 14010KT P6SM BKN120
     FM240500 15005KT P6SM SCT150=

USA.gov is the U.S. government's official web portal to all federal, state and local government web resources and services.